Time;durP1;ratioP1;P1;durP2;ratioP2;P2;SDS_P1;SDS_P2;PMS_P1;PMS_P2;Temp;Humidity;BMP_temperature;BMP_pressure;BME280_temperature;BME280_humidity;BME280_pressure;Samples;Min_cycle;Max_cycle;Signal;HPM_P1;HPM_P2
2022/01/09 00:00:24;;;;;;;3.70;3.40;;;-1.40;99.90;;;;;;7390629;19;20335;-82
2022/01/09 00:02:50;;;;;;;3.47;3.03;;;-1.40;99.90;;;;;;7389612;19;20341;-83
2022/01/09 00:05:16;;;;;;;3.78;3.30;;;-1.50;99.90;;;;;;7391003;19;20317;-80
2022/01/09 00:07:41;;;;;;;3.90;3.40;;;-1.50;99.90;;;;;;7387799;19;20323;-86
2022/01/09 00:10:08;;;;;;;4.73;4.00;;;-1.50;99.90;;;;;;7389971;19;20305;-89
2022/01/09 00:12:34;;;;;;;4.20;3.80;;;-1.60;99.90;;;;;;7392577;19;20347;-83
2022/01/09 00:14:59;;;;;;;4.80;4.33;;;-1.60;99.90;;;;;;7397482;19;20325;-83
2022/01/09 00:17:25;;;;;;;6.65;4.25;;;-1.60;99.90;;;;;;7397278;19;20897;-81
2022/01/09 00:19:51;;;;;;;4.70;4.05;;;-1.40;99.90;;;;;;7392615;19;20336;-82
2022/01/09 00:22:20;;;;;;;4.80;4.40;;;-1.60;99.90;;;;;;7396535;19;20317;-83
2022/01/09 00:24:46;;;;;;;4.32;3.92;;;-1.60;99.90;;;;;;7382276;19;20684;-80
2022/01/09 00:27:12;;;;;;;6.25;4.85;;;-1.60;99.90;;;;;;7394958;19;20312;-83
2022/01/09 00:29:37;;;;;;;6.73;4.67;;;-1.60;99.90;;;;;;7393005;19;20324;-83
2022/01/09 00:32:03;;;;;;;5.47;4.97;;;-1.80;99.90;;;;;;7391328;19;20361;-84
2022/01/09 00:34:29;;;;;;;6.25;5.00;;;-1.60;99.90;;;;;;7396668;19;20439;-85
2022/01/09 00:36:54;;;;;;;6.40;4.90;;;-1.70;99.90;;;;;;7400004;19;20356;-86
2022/01/09 00:39:21;;;;;;;5.15;4.53;;;-1.70;99.90;;;;;;7407018;19;20343;-87
2022/01/09 00:41:47;;;;;;;5.88;5.07;;;-1.70;99.90;;;;;;7398636;19;20304;-93
2022/01/09 00:44:12;;;;;;;7.53;5.27;;;-1.70;99.90;;;;;;7396516;19;20361;-87
2022/01/09 00:46:38;;;;;;;6.20;5.10;;;-1.70;99.90;;;;;;7400552;19;20360;-84
2022/01/09 00:49:04;;;;;;;6.32;5.43;;;-1.70;99.90;;;;;;7399637;19;20324;-86
2022/01/09 00:51:30;;;;;;;6.33;4.97;;;-1.70;99.90;;;;;;7396854;19;20372;-84
2022/01/09 00:53:56;;;;;;;6.65;5.47;;;-1.70;99.90;;;;;;7395589;19;20333;-82
2022/01/09 00:56:21;;;;;;;6.43;5.23;;;-1.70;99.90;;;;;;7396942;19;20335;-86
2022/01/09 00:58:47;;;;;;;6.70;6.00;;;-1.70;99.90;;;;;;7396370;19;20371;-88
2022/01/09 01:01:13;;;;;;;6.60;5.35;;;-1.70;99.90;;;;;;7396856;19;20336;-85
2022/01/09 01:03:39;;;;;;;6.83;5.73;;;-1.70;99.90;;;;;;7398100;19;20340;-89
2022/01/09 01:06:04;;;;;;;6.63;5.47;;;-1.70;99.90;;;;;;7398816;19;20343;-85
2022/01/09 01:08:30;;;;;;;7.68;6.05;;;-1.70;99.90;;;;;;7396712;19;20319;-87
2022/01/09 01:10:56;;;;;;;5.75;4.95;;;-1.70;99.90;;;;;;7395221;19;20356;-82
2022/01/09 01:13:22;;;;;;;5.87;5.10;;;-1.70;99.90;;;;;;7395112;19;20336;-81
2022/01/09 01:15:48;;;;;;;6.77;5.30;;;-1.70;99.90;;;;;;7396006;19;20865;-87
2022/01/09 01:18:13;;;;;;;5.07;4.57;;;-1.70;99.90;;;;;;7391276;19;20321;-90
2022/01/09 01:20:40;;;;;;;6.05;4.80;;;-1.80;99.90;;;;;;7395028;19;20664;-84
2022/01/09 01:23:06;;;;;;;5.88;5.28;;;-1.70;99.90;;;;;;7392994;19;20324;-89
2022/01/09 01:25:32;;;;;;;6.30;5.30;;;-1.80;99.90;;;;;;7394629;19;20329;-83
2022/01/09 01:27:57;;;;;;;5.82;4.88;;;-1.80;99.90;;;;;;7396135;19;20329;-87
2022/01/09 01:30:23;;;;;;;5.45;4.70;;;-1.80;99.90;;;;;;7393623;19;20350;-88
2022/01/09 01:32:49;;;;;;;7.27;4.97;;;-1.80;99.90;;;;;;7396844;19;20335;-82
2022/01/09 01:35:14;;;;;;;5.10;4.20;;;-1.80;99.90;;;;;;7397430;19;20395;-80
2022/01/09 01:37:42;;;;;;;5.18;4.43;;;-2.00;99.90;;;;;;7397382;19;20374;-80
2022/01/09 01:40:14;;;;;;;5.80;5.20;;;-1.80;99.90;;;;;;7395325;19;20362;-79
2022/01/09 01:42:40;;;;;;;5.53;4.97;;;-1.80;99.90;;;;;;7290872;19;2004435;-87
2022/01/09 01:45:08;;;;;;;5.60;4.97;;;-1.80;99.90;;;;;;7394088;19;20336;-83
2022/01/09 01:47:34;;;;;;;6.60;4.75;;;-1.80;99.90;;;;;;7395152;19;20328;-79
2022/01/09 01:50:00;;;;;;;5.40;4.82;;;-1.80;99.90;;;;;;7389469;19;20348;-84
2022/01/09 01:52:34;;;;;;;5.68;4.85;;;-1.80;99.90;;;;;;7406208;19;20325;-81
2022/01/09 01:55:00;;;;;;;4.70;3.92;;;-1.80;99.90;;;;;;7403057;19;20689;-85
2022/01/09 01:57:25;;;;;;;5.43;4.43;;;-1.70;99.90;;;;;;7402923;19;20348;-84
2022/01/09 01:59:51;;;;;;;7.27;4.87;;;-1.80;99.90;;;;;;7406595;19;20357;-85
2022/01/09 02:02:17;;;;;;;5.57;5.07;;;-1.70;99.90;;;;;;7404819;19;20435;-81
2022/01/09 02:04:42;;;;;;;5.60;5.05;;;-1.80;99.90;;;;;;7406035;19;20324;-82
2022/01/09 02:07:08;;;;;;;5.37;4.53;;;-1.80;99.90;;;;;;7405378;19;20315;-84
2022/01/09 02:09:34;;;;;;;5.97;4.97;;;-1.80;99.90;;;;;;7404364;19;20337;-86
2022/01/09 02:12:00;;;;;;;5.60;5.00;;;-1.90;99.90;;;;;;7407127;19;20336;-81
2022/01/09 02:14:25;;;;;;;6.78;4.57;;;-1.80;99.90;;;;;;7406006;19;20337;-82
2022/01/09 02:16:51;;;;;;;5.97;4.90;;;-1.80;99.90;;;;;;7408127;19;20867;-87
2022/01/09 02:19:20;;;;;;;5.88;5.18;;;-1.80;99.90;;;;;;7406952;19;20774;-88
2022/01/09 02:21:46;;;;;;;5.93;5.28;;;-1.80;99.90;;;;;;7409161;19;20349;-85
2022/01/09 02:24:14;;;;;;;4.90;4.27;;;-1.80;99.90;;;;;;7407494;19;20292;-82
2022/01/09 02:26:40;;;;;;;6.53;5.10;;;-1.60;99.90;;;;;;7403705;19;20348;-81
2022/01/09 02:29:06;;;;;;;5.80;4.97;;;-1.70;99.90;;;;;;7403674;19;20324;-84
2022/01/09 02:31:33;;;;;;;4.35;3.97;;;-1.70;99.90;;;;;;7400160;19;20353;-88
2022/01/09 02:33:58;;;;;;;6.13;4.87;;;-1.80;99.90;;;;;;7399454;19;20309;-81
2022/01/09 02:36:24;;;;;;;5.77;4.33;;;-1.70;99.90;;;;;;7397213;19;20873;-85
2022/01/09 02:38:50;;;;;;;4.93;4.43;;;-1.70;99.90;;;;;;7402422;19;20317;-81
2022/01/09 02:41:16;;;;;;;5.65;4.18;;;-1.70;99.90;;;;;;7400246;19;20319;-81
2022/01/09 02:43:41;;;;;;;4.20;3.80;;;-1.70;99.90;;;;;;7397829;19;20346;-83
2022/01/09 02:47:08;;;;;;;5.18;4.60;;;-1.70;99.90;;;;;;7400973;19;20304;-81
2022/01/09 02:49:06;;;;;;;6.70;4.82;;;-1.70;99.90;;;;;;7293300;19;2005850;-82
2022/01/09 02:51:33;;;;;;;5.20;4.65;;;-1.70;99.90;;;;;;7401972;19;20344;-87
2022/01/09 02:55:04;;;;;;;6.10;4.38;;;-1.70;99.90;;;;;;7404901;19;20750;-87
2022/01/09 02:56:45;;;;;;;5.85;4.57;;;-1.60;99.90;;;;;;7301951;19;2004344;-84
2022/01/09 02:59:10;;;;;;;4.23;3.83;;;-1.60;99.90;;;;;;7403844;19;20328;-85
2022/01/09 03:01:36;;;;;;;5.03;4.30;;;-1.70;99.90;;;;;;7398831;19;20428;-80
2022/01/09 03:04:02;;;;;;;4.57;3.50;;;-1.60;99.90;;;;;;7404297;19;20300;-80
2022/01/09 03:06:27;;;;;;;4.60;4.20;;;-1.60;99.90;;;;;;7412702;19;20356;-81
2022/01/09 03:08:55;;;;;;;4.93;4.43;;;-1.60;99.90;;;;;;7414347;19;20865;-84
2022/01/09 03:11:20;;;;;;;4.53;3.50;;;-1.70;99.90;;;;;;7410549;19;20305;-85
2022/01/09 03:13:46;;;;;;;5.27;4.40;;;-1.60;99.90;;;;;;7410305;19;20342;-80
2022/01/09 03:16:12;;;;;;;6.20;4.25;;;-1.70;99.90;;;;;;7415551;19;20339;-83
2022/01/09 03:18:38;;;;;;;4.40;4.00;;;-1.60;99.90;;;;;;7412283;19;20312;-82
2022/01/09 03:21:03;;;;;;;5.53;4.10;;;-1.60;99.90;;;;;;7412435;19;20316;-82
2022/01/09 03:23:29;;;;;;;4.63;4.20;;;-1.60;99.90;;;;;;7409534;19;20358;-83
2022/01/09 03:25:55;;;;;;;4.55;4.05;;;-1.50;99.90;;;;;;7405537;19;20317;-80
2022/01/09 03:28:20;;;;;;;4.40;4.00;;;-1.60;99.90;;;;;;7392074;19;20289;-80
2022/01/09 03:30:46;;;;;;;5.57;3.90;;;-1.60;99.90;;;;;;7393695;19;20334;-85
2022/01/09 03:33:12;;;;;;;4.43;4.03;;;-1.60;99.90;;;;;;7392717;19;20328;-84
2022/01/09 03:35:37;;;;;;;4.70;4.23;;;-1.60;99.90;;;;;;7377693;19;20320;-80
2022/01/09 03:38:03;;;;;;;4.85;4.13;;;-1.70;99.90;;;;;;7392647;19;20328;-80
2022/01/09 03:40:29;;;;;;;4.85;3.97;;;-1.60;99.90;;;;;;7391316;19;20679;-80
2022/01/09 03:42:55;;;;;;;4.55;4.13;;;-1.60;99.90;;;;;;7392741;19;20305;-86
2022/01/09 03:45:22;;;;;;;6.15;4.15;;;-1.60;99.90;;;;;;7393190;19;20332;-80
2022/01/09 03:47:48;;;;;;;6.70;4.43;;;-1.60;99.90;;;;;;7391685;19;20344;-79
2022/01/09 03:50:13;;;;;;;4.60;4.00;;;-1.60;99.90;;;;;;7391546;19;20304;-83
2022/01/09 03:52:40;;;;;;;6.20;4.70;;;-1.60;99.90;;;;;;7392986;19;20325;-81
2022/01/09 03:55:07;;;;;;;4.03;3.63;;;-1.60;99.90;;;;;;7391022;19;20708;-83
2022/01/09 03:57:33;;;;;;;5.97;4.63;;;-1.60;99.90;;;;;;7393169;19;20339;-84
2022/01/09 03:59:59;;;;;;;4.93;4.05;;;-1.60;99.90;;;;;;7390838;19;20316;-80
2022/01/09 04:02:25;;;;;;;5.72;4.20;;;-1.50;99.90;;;;;;7390457;19;20939;-84
2022/01/09 04:04:51;;;;;;;5.88;4.22;;;-1.60;99.90;;;;;;7393057;19;20396;-81
2022/01/09 04:07:17;;;;;;;5.80;4.10;;;-1.60;99.90;;;;;;7393879;19;20337;-84
2022/01/09 04:09:45;;;;;;;3.55;3.25;;;-1.60;99.90;;;;;;7392459;19;20312;-85
2022/01/09 04:12:16;;;;;;;4.63;4.20;;;-1.60;99.90;;;;;;7385604;19;20301;-85
2022/01/09 04:14:43;;;;;;;4.60;4.03;;;-1.60;99.90;;;;;;7391582;19;20372;-82
2022/01/09 04:17:14;;;;;;;4.83;4.10;;;-1.50;99.90;;;;;;7391151;19;20316;-86
2022/01/09 04:19:40;;;;;;;4.45;3.50;;;-1.60;99.90;;;;;;7392996;19;20313;-80
2022/01/09 04:22:05;;;;;;;4.43;3.57;;;-1.60;99.90;;;;;;7391698;19;20327;-80
2022/01/09 04:24:31;;;;;;;4.57;3.73;;;-1.60;99.90;;;;;;7393264;19;20324;-83
2022/01/09 04:26:57;;;;;;;3.72;3.42;;;-1.70;99.90;;;;;;7392351;19;20316;-87
2022/01/09 04:29:23;;;;;;;5.67;4.40;;;-1.70;99.90;;;;;;7390336;19;20379;-83
2022/01/09 04:31:48;;;;;;;4.03;3.60;;;-1.60;99.90;;;;;;7390270;19;20292;-82
2022/01/09 04:34:14;;;;;;;4.93;3.83;;;-1.70;99.90;;;;;;7396612;19;20317;-81
2022/01/09 04:36:40;;;;;;;4.28;3.88;;;-1.70;99.90;;;;;;7395204;19;20309;-83
2022/01/09 04:39:06;;;;;;;5.40;4.00;;;-1.70;99.90;;;;;;7391310;19;20312;-83
2022/01/09 04:41:31;;;;;;;6.00;3.67;;;-1.70;99.90;;;;;;7393452;19;20394;-84
2022/01/09 04:43:57;;;;;;;3.88;3.40;;;-1.70;99.90;;;;;;7392211;19;20309;-84
2022/01/09 04:46:30;;;;;;;4.87;4.00;;;-1.70;99.90;;;;;;7393517;19;20312;-85
2022/01/09 04:48:56;;;;;;;4.38;3.58;;;-1.70;99.90;;;;;;7391908;19;20353;-82
2022/01/09 04:51:22;;;;;;;4.22;3.72;;;-1.70;99.90;;;;;;7393996;19;20347;-86
2022/01/09 04:53:48;;;;;;;4.13;3.72;;;-1.70;99.90;;;;;;7394155;19;20340;-80
2022/01/09 04:56:14;;;;;;;3.43;3.13;;;-1.70;99.90;;;;;;7392207;19;20859;-82
2022/01/09 04:58:39;;;;;;;5.90;3.70;;;-1.70;99.90;;;;;;7390497;19;20437;-84
2022/01/09 05:01:05;;;;;;;4.28;3.65;;;-1.80;99.90;;;;;;7392911;19;20316;-87
2022/01/09 05:03:31;;;;;;;4.73;3.53;;;-1.70;99.90;;;;;;7392372;19;20357;-80
2022/01/09 05:05:56;;;;;;;4.03;3.63;;;-1.70;99.90;;;;;;7391128;19;20337;-79
2022/01/09 05:08:22;;;;;;;3.80;3.45;;;-1.80;99.90;;;;;;7391159;19;20332;-90
2022/01/09 05:10:48;;;;;;;3.83;3.47;;;-1.70;99.90;;;;;;7389778;19;20331;-88
2022/01/09 05:13:14;;;;;;;4.07;3.40;;;-1.80;99.90;;;;;;7394672;19;20365;-80
2022/01/09 05:15:39;;;;;;;3.73;3.40;;;-1.80;99.90;;;;;;7391235;19;20336;-81
2022/01/09 05:18:12;;;;;;;4.28;3.70;;;-1.80;99.90;;;;;;7392713;19;21136;-81
2022/01/09 05:20:38;;;;;;;5.43;3.80;;;-1.80;99.90;;;;;;7381060;19;20313;-83
2022/01/09 05:23:03;;;;;;;4.73;3.53;;;-1.70;99.90;;;;;;7394955;19;20355;-83
2022/01/09 05:25:29;;;;;;;4.10;3.70;;;-1.70;99.90;;;;;;7391324;19;20363;-83
2022/01/09 05:27:55;;;;;;;3.42;3.13;;;-1.60;99.90;;;;;;7395557;19;20401;-84
2022/01/09 05:30:21;;;;;;;4.50;4.03;;;-1.70;99.90;;;;;;7390329;19;20328;-79
2022/01/09 05:32:46;;;;;;;5.97;4.17;;;-1.60;99.90;;;;;;7387248;19;20319;-79
2022/01/09 05:35:12;;;;;;;3.67;3.38;;;-1.70;99.90;;;;;;7393399;19;20320;-83
2022/01/09 05:37:38;;;;;;;5.73;3.97;;;-1.70;99.90;;;;;;7389270;19;20321;-78
2022/01/09 05:40:04;;;;;;;4.13;3.73;;;-1.60;99.90;;;;;;7390067;19;20320;-81
2022/01/09 05:42:29;;;;;;;3.88;3.47;;;-1.60;99.90;;;;;;7390824;19;20798;-82
2022/01/09 05:44:55;;;;;;;4.63;3.50;;;-1.60;99.90;;;;;;7391931;19;20315;-80
2022/01/09 05:47:21;;;;;;;3.65;3.30;;;-1.50;99.90;;;;;;7391421;19;20297;-81
2022/01/09 05:49:47;;;;;;;4.10;3.70;;;-1.50;99.90;;;;;;7391141;19;20349;-84
2022/01/09 05:52:12;;;;;;;4.97;3.67;;;-1.50;99.90;;;;;;7392357;19;20348;-90
2022/01/09 05:54:38;;;;;;;5.63;3.72;;;-1.40;99.90;;;;;;7395952;19;20337;-81
2022/01/09 05:57:04;;;;;;;3.90;3.50;;;-1.40;99.90;;;;;;7393845;19;20317;-87
2022/01/09 05:59:30;;;;;;;3.65;3.10;;;-1.30;99.90;;;;;;7394512;19;20399;-83
2022/01/09 06:01:57;;;;;;;3.83;2.93;;;-1.30;99.90;;;;;;7372627;19;20346;-89
2022/01/09 06:04:23;;;;;;;4.43;3.25;;;-1.20;99.90;;;;;;7393803;19;20376;-85
2022/01/09 06:06:49;;;;;;;4.35;3.17;;;-1.20;99.90;;;;;;7394515;19;20332;-84
2022/01/09 06:09:15;;;;;;;3.88;3.47;;;-1.20;99.90;;;;;;7393113;19;20365;-83
2022/01/09 06:11:41;;;;;;;3.45;2.90;;;-1.10;99.90;;;;;;7395480;19;20332;-85
2022/01/09 06:14:07;;;;;;;3.78;3.00;;;-1.10;99.90;;;;;;7391916;19;20688;-81
2022/01/09 06:16:33;;;;;;;3.63;3.23;;;-1.10;99.90;;;;;;7391514;19;20316;-83
2022/01/09 06:18:58;;;;;;;4.03;3.25;;;-1.00;99.90;;;;;;7391830;19;20352;-79
2022/01/09 06:21:26;;;;;;;4.20;2.90;;;-1.00;99.90;;;;;;7392185;19;20313;-83
2022/01/09 06:23:52;;;;;;;5.05;3.05;;;-1.00;99.90;;;;;;7391649;19;20317;-80
2022/01/09 06:26:18;;;;;;;4.68;3.17;;;-1.00;99.90;;;;;;7392246;19;20292;-85
2022/01/09 06:28:44;;;;;;;5.00;3.00;;;-0.90;99.90;;;;;;7392471;19;20876;-80
2022/01/09 06:31:09;;;;;;;3.78;3.15;;;-1.00;99.90;;;;;;7392134;19;20408;-81
2022/01/09 06:33:35;;;;;;;4.05;2.92;;;-0.90;99.90;;;;;;7392135;19;20328;-81
2022/01/09 06:36:01;;;;;;;2.97;2.77;;;-0.90;99.90;;;;;;7399286;19;20351;-80
2022/01/09 06:38:27;;;;;;;4.82;2.80;;;-0.90;99.90;;;;;;7400301;19;20614;-82
2022/01/09 06:40:52;;;;;;;2.97;2.78;;;-0.90;99.90;;;;;;7403229;19;20301;-82
2022/01/09 06:43:18;;;;;;;3.08;2.83;;;-0.90;99.90;;;;;;7400061;19;20327;-80
2022/01/09 06:45:44;;;;;;;3.43;2.80;;;-0.90;99.90;;;;;;7399684;19;20340;-86
2022/01/09 06:48:10;;;;;;;3.10;2.80;;;-0.90;99.90;;;;;;7395960;19;20328;-83
2022/01/09 06:50:35;;;;;;;3.03;2.60;;;-1.00;99.90;;;;;;7396666;19;20376;-81
2022/01/09 06:53:01;;;;;;;3.33;3.03;;;-1.00;99.90;;;;;;7400538;19;20652;-81
2022/01/09 06:55:27;;;;;;;2.70;2.50;;;-1.00;99.90;;;;;;7393300;19;20348;-81
2022/01/09 06:57:54;;;;;;;2.60;2.40;;;-1.00;99.90;;;;;;7394428;19;20329;-80
2022/01/09 07:00:20;;;;;;;4.80;2.50;;;-1.00;99.90;;;;;;7398573;19;20400;-85
2022/01/09 07:02:46;;;;;;;3.13;2.60;;;-1.00;99.90;;;;;;7393561;19;20336;-86
2022/01/09 07:05:12;;;;;;;3.50;2.60;;;-1.00;99.90;;;;;;7383300;19;20311;-84
2022/01/09 07:07:38;;;;;;;3.97;2.78;;;-1.00;99.90;;;;;;7408032;19;20324;-83
2022/01/09 07:10:04;;;;;;;2.83;2.55;;;-1.10;99.90;;;;;;7408784;19;20334;-82
2022/01/09 07:12:30;;;;;;;3.58;3.13;;;-1.10;99.90;;;;;;7411063;19;20337;-85
2022/01/09 07:14:55;;;;;;;4.10;2.72;;;-1.10;99.90;;;;;;7403803;19;20313;-82
2022/01/09 07:17:21;;;;;;;3.10;2.80;;;-1.20;99.90;;;;;;7403692;19;20336;-88
2022/01/09 07:19:47;;;;;;;4.30;2.92;;;-1.10;99.90;;;;;;7399948;19;20382;-79
2022/01/09 07:22:12;;;;;;;2.95;2.65;;;-1.10;99.90;;;;;;7398893;19;20323;-80
2022/01/09 07:24:38;;;;;;;3.22;2.92;;;-1.10;99.90;;;;;;7402926;19;20321;-81
2022/01/09 07:27:04;;;;;;;3.33;3.03;;;-1.00;99.90;;;;;;7404997;19;20744;-85
2022/01/09 07:29:30;;;;;;;3.53;3.20;;;-1.00;99.90;;;;;;7402703;19;20339;-81
2022/01/09 07:31:56;;;;;;;3.03;2.80;;;-0.90;99.90;;;;;;7396804;19;20846;-88
2022/01/09 07:34:21;;;;;;;3.63;3.13;;;-1.00;99.90;;;;;;7397301;19;20384;-79
2022/01/09 07:36:47;;;;;;;3.60;3.00;;;-0.90;99.90;;;;;;7397959;19;20333;-82
2022/01/09 07:39:13;;;;;;;3.37;2.73;;;-0.90;99.90;;;;;;7396500;19;21352;-80
2022/01/09 07:41:39;;;;;;;3.72;3.40;;;-0.80;99.90;;;;;;7397162;19;20341;-81
2022/01/09 07:44:05;;;;;;;3.28;2.97;;;-0.80;99.90;;;;;;7396341;19;20321;-82
2022/01/09 07:46:30;;;;;;;3.20;2.90;;;-0.70;99.90;;;;;;7397670;19;20325;-81
2022/01/09 07:48:56;;;;;;;3.67;3.00;;;-0.70;99.90;;;;;;7392128;19;20362;-81
2022/01/09 07:51:22;;;;;;;3.07;2.87;;;-0.60;99.90;;;;;;7393942;19;20344;-84
2022/01/09 07:53:47;;;;;;;3.78;2.88;;;-0.60;99.90;;;;;;7393951;19;20320;-79
2022/01/09 07:56:13;;;;;;;3.10;2.80;;;-0.50;99.90;;;;;;7392802;19;20388;-85
2022/01/09 07:58:39;;;;;;;3.10;2.50;;;-0.40;99.90;;;;;;7391513;19;20324;-79
2022/01/09 08:01:05;;;;;;;3.93;2.80;;;-0.40;99.90;;;;;;7391591;19;20300;-81
2022/01/09 08:03:31;;;;;;;2.60;2.40;;;-0.40;99.90;;;;;;7391537;19;20684;-81
2022/01/09 08:05:57;;;;;;;2.60;2.40;;;-0.30;99.90;;;;;;7393827;19;20305;-79
2022/01/09 08:08:22;;;;;;;3.17;2.78;;;-0.30;99.90;;;;;;7392156;19;20322;-81
2022/01/09 08:10:48;;;;;;;2.70;2.45;;;-0.30;99.90;;;;;;7389783;19;20343;-84
2022/01/09 08:13:14;;;;;;;2.73;2.37;;;-0.20;99.90;;;;;;7391873;19;20332;-80
2022/01/09 08:15:40;;;;;;;2.60;2.38;;;-0.20;99.90;;;;;;7391743;19;20301;-80
2022/01/09 08:18:06;;;;;;;3.40;2.60;;;-0.10;99.90;;;;;;7389316;19;20312;-82
2022/01/09 08:20:32;;;;;;;3.00;2.70;;;-0.10;99.90;;;;;;7390761;19;20858;-84
2022/01/09 08:22:58;;;;;;;3.38;2.60;;;0.00;99.90;;;;;;7391473;19;20332;-81
2022/01/09 08:25:26;;;;;;;4.87;2.80;;;0.00;99.90;;;;;;7399075;19;20337;-79
2022/01/09 08:27:51;;;;;;;5.03;2.60;;;0.00;99.90;;;;;;7400338;19;20328;-79
2022/01/09 08:30:20;;;;;;;2.78;2.45;;;0.10;99.90;;;;;;7391945;19;20323;-79
2022/01/09 08:32:47;;;;;;;2.58;2.38;;;0.10;99.90;;;;;;7397481;19;20321;-79
2022/01/09 08:35:12;;;;;;;3.00;2.80;;;0.20;99.90;;;;;;7399370;19;20319;-80
2022/01/09 08:37:41;;;;;;;2.27;2.07;;;0.20;99.90;;;;;;7402790;19;20328;-83
2022/01/09 08:40:09;;;;;;;5.23;3.20;;;0.30;99.90;;;;;;7407224;19;20289;-80
2022/01/09 08:42:34;;;;;;;2.90;2.60;;;0.30;99.90;;;;;;7404633;19;20348;-79
2022/01/09 08:45:00;;;;;;;3.13;2.83;;;0.30;99.90;;;;;;7404678;19;20320;-82
2022/01/09 08:47:26;;;;;;;2.63;2.40;;;0.40;99.90;;;;;;7405913;19;20308;-82
2022/01/09 08:49:52;;;;;;;3.53;3.10;;;0.40;99.90;;;;;;7399622;19;20343;-79
2022/01/09 08:52:18;;;;;;;3.50;2.92;;;0.30;99.90;;;;;;7404622;19;20321;-79
2022/01/09 08:54:43;;;;;;;2.90;2.60;;;0.40;99.90;;;;;;7403913;19;20308;-83
2022/01/09 08:57:09;;;;;;;2.93;2.63;;;0.30;99.90;;;;;;7385146;19;20328;-82
2022/01/09 08:59:35;;;;;;;2.13;2.03;;;0.50;99.90;;;;;;7408669;19;20301;-82
2022/01/09 09:02:00;;;;;;;2.35;2.15;;;0.50;99.90;;;;;;7408890;19;20353;-84
2022/01/09 09:04:29;;;;;;;2.50;2.30;;;0.60;99.90;;;;;;7409741;19;20327;-79
2022/01/09 09:06:55;;;;;;;10.23;7.60;;;0.60;99.90;;;;;;7410465;19;20322;-82
2022/01/09 09:09:22;;;;;;;15.20;10.10;;;0.70;99.90;;;;;;7407987;19;20373;-79
2022/01/09 09:12:08;;;;;;;33.47;21.27;;;0.70;99.90;;;;;;7374237;19;20353;-81
2022/01/09 09:15:03;;;;;;;15.48;9.27;;;0.80;99.90;;;;;;7189807;19;2004532;-86
2022/01/09 09:18:03;;;;;;;6.40;4.82;;;0.80;99.90;;;;;;7395318;19;20305;-83
2022/01/09 09:24:20;;;;;;;4.37;3.33;;;0.80;99.90;;;;;;7403946;19;20372;-79
2022/01/09 09:26:46;;;;;;;23.17;16.85;;;0.90;99.90;;;;;;7385548;19;20392;-84
2022/01/09 09:29:12;;;;;;;8.57;5.95;;;1.00;99.90;;;;;;7394259;19;20329;-80
2022/01/09 09:31:41;;;;;;;3.67;3.28;;;1.10;99.90;;;;;;7407041;19;20324;-79
2022/01/09 09:34:16;;;;;;;6.07;5.25;;;1.10;99.90;;;;;;7406947;19;20312;-81
2022/01/09 09:36:47;;;;;;;9.73;8.73;;;1.10;99.90;;;;;;7383689;19;21641;-82
2022/01/09 09:40:24;;;;;;;7.60;6.57;;;1.20;99.90;;;;;;7376208;19;20353;-84
2022/01/09 09:43:20;;;;;;;39.55;27.05;;;1.30;99.90;;;;;;7299616;19;2004402;-83
2022/01/09 09:45:51;;;;;;;40.92;29.00;;;1.30;99.90;;;;;;7256630;19;2004226;-79
2022/01/09 09:48:48;;;;;;;9.60;6.13;;;1.50;99.90;;;;;;7298212;19;2004270;-84
2022/01/09 09:51:48;;;;;;;16.20;12.57;;;1.40;99.90;;;;;;7350803;19;20339;-81
2022/01/09 09:54:15;;;;;;;32.40;24.75;;;1.30;99.90;;;;;;7392359;19;20332;-80
2022/01/09 09:56:41;;;;;;;33.90;21.52;;;1.20;99.90;;;;;;7351872;19;20309;-88
2022/01/09 09:59:07;;;;;;;25.23;16.10;;;1.50;99.90;;;;;;7393682;19;20357;-85
2022/01/09 10:01:37;;;;;;;19.42;12.98;;;1.50;99.90;;;;;;7374644;19;20413;-86
2022/01/09 10:04:11;;;;;;;56.40;28.15;;;1.40;99.90;;;;;;7395679;19;20321;-82
2022/01/09 10:06:49;;;;;;;18.08;9.65;;;1.50;99.90;;;;;;7399540;19;20320;-90
2022/01/09 10:09:36;;;;;;;53.72;28.00;;;1.50;99.90;;;;;;7406012;19;20304;-84
2022/01/09 10:12:06;;;;;;;81.63;43.90;;;1.50;99.90;;;;;;7307376;19;2006301;-84
2022/01/09 10:14:32;;;;;;;51.90;28.52;;;1.60;99.90;;;;;;7392834;19;20356;-82
2022/01/09 10:17:10;;;;;;;39.90;23.95;;;1.60;99.90;;;;;;7402261;19;20316;-83
2022/01/09 10:19:50;;;;;;;22.50;15.20;;;1.70;99.90;;;;;;7400434;19;20363;-80
2022/01/09 10:22:30;;;;;;;20.23;12.27;;;1.70;99.90;;;;;;7404492;19;20372;-87
2022/01/09 10:24:56;;;;;;;48.03;27.90;;;1.90;99.90;;;;;;7406867;19;20324;-87
2022/01/09 10:27:35;;;;;;;17.35;10.70;;;1.90;99.90;;;;;;7402747;19;20383;-83
2022/01/09 10:30:13;;;;;;;33.25;23.65;;;2.00;99.90;;;;;;7415015;19;20360;-79
2022/01/09 10:32:45;;;;;;;30.83;23.13;;;2.00;99.90;;;;;;7385505;19;20332;-86
2022/01/09 10:35:50;;;;;;;7.82;5.95;;;2.10;99.90;;;;;;7393018;19;20321;-84
2022/01/09 10:38:32;;;;;;;18.77;16.50;;;2.10;99.90;;;;;;7266774;19;2004381;-85
2022/01/09 10:41:00;;;;;;;6.00;4.53;;;2.20;99.90;;;;;;7318059;19;2004391;-85
2022/01/09 10:43:51;;;;;;;4.20;3.80;;;2.30;99.90;;;;;;7401160;19;20406;-85
2022/01/09 10:46:42;;;;;;;3.35;2.65;;;2.40;99.90;;;;;;7398893;19;20324;-84
2022/01/09 10:49:21;;;;;;;4.13;3.73;;;2.40;99.90;;;;;;7367570;19;20376;-87
2022/01/09 10:52:27;;;;;;;6.07;5.47;;;2.50;99.90;;;;;;7421316;19;20336;-80
2022/01/09 10:55:22;;;;;;;3.25;2.95;;;2.50;99.90;;;;;;7367421;19;20332;-82
2022/01/09 10:57:53;;;;;;;3.22;2.92;;;2.60;99.90;;;;;;7164142;19;2004260;-86
2022/01/09 11:04:23;;;;;;;3.95;2.85;;;2.70;99.90;;;;;;7431782;19;20365;-79
2022/01/09 11:07:49;;;;;;;2.38;2.17;;;2.70;99.90;;;;;;7372120;19;20360;-83
2022/01/09 11:10:32;;;;;;;4.03;3.55;;;2.80;99.90;;;;;;7289815;19;2004386;-85
2022/01/09 11:13:00;;;;;;;4.78;2.70;;;2.90;99.90;;;;;;7375225;19;20853;-86
2022/01/09 11:15:29;;;;;;;2.95;2.65;;;3.00;99.90;;;;;;7368996;19;20361;-82
2022/01/09 11:17:58;;;;;;;2.20;2.00;;;3.00;99.90;;;;;;7375825;19;20324;-85
2022/01/09 11:20:25;;;;;;;6.72;6.03;;;3.00;99.90;;;;;;7378619;19;20692;-87
2022/01/09 11:22:53;;;;;;;3.83;3.05;;;3.00;99.90;;;;;;7378899;19;20320;-87
2022/01/09 11:25:37;;;;;;;2.33;2.13;;;3.00;99.90;;;;;;7371829;19;20316;-88
2022/01/09 11:28:23;;;;;;;2.63;2.22;;;3.10;99.90;;;;;;7276814;19;2004403;-80
2022/01/09 11:31:15;;;;;;;2.53;2.17;;;3.10;99.90;;;;;;7270243;19;2004567;-87
2022/01/09 11:33:56;;;;;;;2.70;2.50;;;3.10;99.90;;;;;;7370193;19;20309;-90
2022/01/09 11:36:36;;;;;;;3.15;2.28;;;3.00;99.90;;;;;;7351758;19;20317;-89
2022/01/09 11:39:12;;;;;;;2.78;2.58;;;3.00;99.90;;;;;;7377662;19;20401;-86
2022/01/09 11:41:43;;;;;;;2.60;2.40;;;3.20;99.90;;;;;;7373002;19;20357;-86
2022/01/09 11:44:11;;;;;;;2.22;2.13;;;3.00;99.90;;;;;;7380698;19;20312;-81
2022/01/09 11:46:58;;;;;;;2.83;2.58;;;3.00;99.90;;;;;;7384467;19;20842;-84
2022/01/09 11:49:25;;;;;;;3.15;2.33;;;3.00;99.90;;;;;;7364761;19;20341;-89
2022/01/09 11:51:57;;;;;;;2.07;1.97;;;3.10;99.90;;;;;;7372654;19;20666;-86
2022/01/09 11:54:24;;;;;;;2.30;2.10;;;3.10;99.90;;;;;;7381661;19;20317;-89
2022/01/09 11:56:53;;;;;;;2.60;2.40;;;3.10;99.90;;;;;;7360844;19;20441;-86
2022/01/09 11:59:37;;;;;;;3.17;2.15;;;3.00;99.90;;;;;;7370659;19;20333;-86
2022/01/09 12:02:05;;;;;;;2.70;2.35;;;3.10;99.90;;;;;;7377012;19;20325;-88
2022/01/09 12:04:51;;;;;;;7.70;5.05;;;3.10;99.90;;;;;;7381311;19;20316;-92
2022/01/09 12:07:56;;;;;;;2.87;2.67;;;3.10;99.90;;;;;;7376498;19;20345;-88
2022/01/09 12:13:58;;;;;;;2.70;2.50;;;3.10;99.90;;;;;;7388602;19;20317;-90
2022/01/09 12:16:46;;;;;;;2.50;2.30;;;3.20;99.90;;;;;;7406849;19;20308;-93
2022/01/09 12:19:12;;;;;;;2.40;2.20;;;3.20;99.90;;;;;;7305598;19;2004294;-92
2022/01/09 12:21:38;;;;;;;2.13;1.95;;;3.20;99.90;;;;;;7403149;19;20335;-91
2022/01/09 12:24:42;;;;;;;2.10;2.00;;;3.20;99.90;;;;;;7404942;19;20320;-89
2022/01/09 12:27:36;;;;;;;2.30;2.10;;;3.20;99.90;;;;;;7302240;19;2004431;-86
2022/01/09 12:30:05;;;;;;;2.45;2.25;;;3.20;99.90;;;;;;7302843;19;2004428;-88
2022/01/09 12:32:43;;;;;;;2.38;2.17;;;3.30;99.90;;;;;;7406851;19;20352;-86
2022/01/09 12:35:19;;;;;;;1.95;1.85;;;3.40;99.90;;;;;;7404724;19;20296;-88
2022/01/09 12:37:46;;;;;;;1.80;1.70;;;3.40;99.90;;;;;;7404676;19;20340;-87
2022/01/09 12:40:15;;;;;;;2.40;2.20;;;3.50;99.90;;;;;;7404373;19;20862;-84
2022/01/09 12:42:48;;;;;;;2.10;1.90;;;3.60;99.90;;;;;;7409492;19;20324;-86
2022/01/09 12:45:28;;;;;;;2.83;2.30;;;3.60;99.90;;;;;;7305028;19;2004423;-85
2022/01/09 12:47:55;;;;;;;2.17;1.98;;;3.70;99.90;;;;;;7307009;19;2004420;-90
2022/01/09 12:50:30;;;;;;;4.15;1.98;;;3.80;99.90;;;;;;7403869;19;20316;-85
2022/01/09 12:53:15;;;;;;;4.25;2.53;;;3.80;99.90;;;;;;7404104;19;20319;-85
2022/01/09 12:56:07;;;;;;;2.13;1.92;;;3.90;99.90;;;;;;7404749;19;20349;-87
2022/01/09 12:58:37;;;;;;;2.03;1.90;;;3.90;99.90;;;;;;7302445;19;2008380;-89
2022/01/09 13:01:12;;;;;;;2.33;2.13;;;3.90;99.90;;;;;;7404830;19;20297;-88
2022/01/09 13:03:40;;;;;;;3.53;2.42;;;3.90;99.90;;;;;;7303500;19;2004440;-88
2022/01/09 13:06:08;;;;;;;2.13;1.93;;;4.00;99.90;;;;;;7396596;19;20421;-88
2022/01/09 13:08:44;;;;;;;2.10;1.90;;;4.00;99.90;;;;;;7383089;19;20351;-85
2022/01/09 13:11:27;;;;;;;1.90;1.70;;;4.00;99.90;;;;;;7407511;19;20333;-84